EJA416 KCMH-KERI
Flight info
| Callsign | EJA416 |
|---|---|
| Flight time | N/A |
| Altitude | 17000 |
| Route | RDBUV NOWZU JUSEP DJB |
| Aircraft | C700/M-SBDGHM1RWXY/LB2 |
Departure
| Time | 2026-05-07 22:43 |
|---|---|
| Airport | John Glenn Columbus International Airport (KCMH) |
Arrival
| Time | N/A |
|---|---|
| Airport | Erie International Tom Ridge Field (KERI) |
| Time | Latitude | Longitude | Altitude | Speed | Heading |
|---|---|---|---|---|---|
| 2026-05-07 22:20 | 39.99631 | -82.89131 | 818 ft | 0 kts | 182° |
| 2026-05-07 22:36 | 39.99634 | -82.89131 | 818 ft | 1 kts | 182° |
| 2026-05-07 22:36 | 39.99643 | -82.89131 | 818 ft | 1 kts | 187° |
| 2026-05-07 22:36 | 39.99651 | -82.89128 | 819 ft | 1 kts | 216° |
| 2026-05-07 22:37 | 39.99652 | -82.89127 | 819 ft | 0 kts | 219° |
| 2026-05-07 22:37 | 39.99642 | -82.89141 | 818 ft | 4 kts | 234° |
| 2026-05-07 22:37 | 39.99617 | -82.89169 | 818 ft | 2 kts | 194° |
| 2026-05-07 22:38 | 39.99615 | -82.89170 | 818 ft | 0 kts | 192° |
| 2026-05-07 22:39 | 39.99606 | -82.89172 | 818 ft | 5 kts | 189° |
| 2026-05-07 22:39 | 39.99543 | -82.89175 | 818 ft | 13 kts | 180° |
| 2026-05-07 22:39 | 39.99443 | -82.89145 | 816 ft | 15 kts | 116° |
| 2026-05-07 22:40 | 39.99434 | -82.88989 | 816 ft | 19 kts | 94° |
| 2026-05-07 22:40 | 39.99423 | -82.88801 | 815 ft | 23 kts | 94° |
| 2026-05-07 22:40 | 39.99410 | -82.88575 | 813 ft | 27 kts | 94° |
| 2026-05-07 22:40 | 39.99396 | -82.88325 | 812 ft | 29 kts | 94° |
| 2026-05-07 22:41 | 39.99381 | -82.88055 | 816 ft | 31 kts | 95° |
| 2026-05-07 22:41 | 39.99367 | -82.87807 | 817 ft | 27 kts | 94° |
| 2026-05-07 22:41 | 39.99351 | -82.87552 | 817 ft | 27 kts | 94° |
| 2026-05-07 22:41 | 39.99339 | -82.87372 | 812 ft | 19 kts | 107° |
| 2026-05-07 22:42 | 39.99260 | -82.87323 | 814 ft | 0 kts | 186° |
| 2026-05-07 22:42 | 39.99260 | -82.87324 | 814 ft | 1 kts | 186° |
| 2026-05-07 22:42 | 39.99212 | -82.87333 | 813 ft | 13 kts | 194° |
| 2026-05-07 22:42 | 39.99168 | -82.87416 | 814 ft | 0 kts | 274° |
| 2026-05-07 22:43 | 39.99177 | -82.87541 | 812 ft | 53 kts | 275° |
| 2026-05-07 22:43 | 39.99223 | -82.88444 | 951 ft | 133 kts | 279° |
| 2026-05-07 22:43 | 39.99327 | -82.89736 | 1918 ft | 154 kts | 292° |
| 2026-05-07 22:44 | 39.99886 | -82.90951 | 3273 ft | 159 kts | 304° |
| 2026-05-07 22:44 | 40.00505 | -82.92204 | 4667 ft | 174 kts | 303° |
| 2026-05-07 22:44 | 40.01202 | -82.93644 | 5842 ft | 201 kts | 303° |
| 2026-05-07 22:44 | 40.02224 | -82.95022 | 6961 ft | 230 kts | 331° |
| 2026-05-07 22:45 | 40.03867 | -82.95228 | 8381 ft | 251 kts | 11° |
| 2026-05-07 22:45 | 40.05460 | -82.94152 | 10133 ft | 266 kts | 27° |
| 2026-05-07 22:45 | 40.07090 | -82.92779 | 11398 ft | 291 kts | 25° |
| 2026-05-07 22:45 | 40.08960 | -82.91498 | 12612 ft | 316 kts | 18° |
| 2026-05-07 22:46 | 40.11102 | -82.90259 | 13007 ft | 352 kts | 17° |
| 2026-05-07 22:46 | 40.13282 | -82.88926 | 14260 ft | 335 kts | 19° |
| 2026-05-07 22:46 | 40.15347 | -82.87586 | 16229 ft | 336 kts | 18° |
| 2026-05-07 22:46 | 40.17541 | -82.86234 | 16993 ft | 367 kts | 17° |
| 2026-05-07 22:47 | 40.19915 | -82.84783 | 16999 ft | 377 kts | 18° |
| 2026-05-07 22:47 | 40.22242 | -82.83291 | 16990 ft | 368 kts | 18° |
| 2026-05-07 22:47 | 40.24560 | -82.81822 | 16986 ft | 379 kts | 17° |
| 2026-05-07 22:47 | 40.26991 | -82.80330 | 17004 ft | 398 kts | 18° |
| 2026-05-07 22:48 | 40.29496 | -82.78758 | 17002 ft | 399 kts | 18° |
| 2026-05-07 22:48 | 40.31994 | -82.77163 | 16986 ft | 399 kts | 19° |
| 2026-05-07 22:48 | 40.34510 | -82.75581 | 16989 ft | 402 kts | 18° |
| 2026-05-07 22:48 | 40.37041 | -82.73999 | 16989 ft | 402 kts | 18° |
| 2026-05-07 22:49 | 40.39563 | -82.72409 | 16986 ft | 401 kts | 18° |
| 2026-05-07 22:49 | 40.42109 | -82.70969 | 16979 ft | 397 kts | 14° |
| 2026-05-07 22:49 | 40.44671 | -82.69627 | 16980 ft | 396 kts | 14° |
| 2026-05-07 22:49 | 40.47230 | -82.68271 | 16979 ft | 397 kts | 15° |
| 2026-05-07 22:50 | 40.49787 | -82.66902 | 16982 ft | 397 kts | 15° |
| 2026-05-07 22:50 | 40.52353 | -82.65533 | 16980 ft | 398 kts | 15° |
| 2026-05-07 22:50 | 40.54893 | -82.64182 | 16983 ft | 399 kts | 15° |
| 2026-05-07 22:50 | 40.57440 | -82.62707 | 16982 ft | 401 kts | 17° |
| 2026-05-07 22:51 | 40.59985 | -82.61189 | 16986 ft | 401 kts | 17° |
| 2026-05-07 22:51 | 40.62532 | -82.59684 | 16986 ft | 401 kts | 17° |
| 2026-05-07 22:51 | 40.64790 | -82.58354 | 16986 ft | 402 kts | 17° |
| 2026-05-07 22:51 | 40.65885 | -82.57706 | 16986 ft | 402 kts | 17° |
| 2026-05-07 22:52 | 40.68436 | -82.56190 | 16998 ft | 400 kts | 17° |